Time;durP1;ratioP1;P1;durP2;ratioP2;P2;SDS_P1;SDS_P2;PMS_P1;PMS_P2;Temp;Humidity;BMP_temperature;BMP_pressure;BME280_temperature;BME280_humidity;BME280_pressure;Samples;Min_cycle;Max_cycle;Signal;HPM_P1;HPM_P2
2022/01/20 00:02:06;;;;;;;79.50;38.25;;;1.20;99.90;;;0.98;67.47;98503.78;5023499;28;20037;-81
2022/01/20 00:07:31;;;;;;;81.63;35.40;;;1.30;99.90;;;1.20;66.87;98496.19;5025949;28;20108;-81
2022/01/20 00:26:21;;;;;;;54.25;24.15;;;1.90;99.90;;;1.86;66.00;98467.91;5007128;28;20148;-81
2022/01/20 00:28:51;;;;;;;56.28;22.92;;;2.00;99.90;;;2.11;65.83;98462.41;5035958;28;20071;-81
2022/01/20 00:33:54;;;;;;;38.97;19.52;;;2.40;99.90;;;2.51;65.55;98451.13;5039861;28;20049;-80
2022/01/20 00:39:07;;;;;;;35.15;17.50;;;2.70;99.90;;;2.73;64.59;98438.81;5027383;28;20041;-81
2022/01/20 00:41:34;;;;;;;35.50;17.23;;;2.80;99.90;;;2.91;64.60;98451.28;5024187;28;20467;-80
2022/01/20 00:43:59;;;;;;;38.58;16.30;;;3.00;99.90;;;3.03;64.20;98454.81;5025900;28;20041;-80
2022/01/20 00:46:25;;;;;;;30.88;15.50;;;3.10;99.90;;;3.14;64.03;98442.44;5039608;28;20068;-80
2022/01/20 00:48:52;;;;;;;26.98;14.00;;;3.20;99.90;;;3.22;63.45;98465.38;5006470;28;20041;-81
2022/01/20 00:51:17;;;;;;;26.83;15.02;;;3.30;99.90;;;3.26;63.28;98467.38;5054036;28;20051;-80
2022/01/20 00:53:44;;;;;;;28.92;15.32;;;3.40;99.90;;;3.33;63.49;98463.75;5039985;28;20052;-81
2022/01/20 00:56:12;;;;;;;27.80;14.98;;;3.50;99.90;;;3.41;62.82;98445.44;5024934;28;20040;-81
2022/01/20 00:58:38;;;;;;;24.15;14.70;;;3.60;99.90;;;3.50;62.38;98442.41;5020131;28;20044;-81
2022/01/20 01:01:04;;;;;;;32.38;15.00;;;3.70;99.90;;;3.57;62.78;98461.84;5037878;28;20037;-81
2022/01/20 01:03:30;;;;;;;28.08;15.38;;;3.70;99.90;;;3.60;62.95;98443.41;5017151;28;20067;-81
2022/01/20 01:06:12;;;;;;;31.02;15.32;;;3.70;99.90;;;3.63;62.60;98450.97;5036104;28;20049;-81
2022/01/20 01:08:39;;;;;;;27.35;14.40;;;3.80;99.90;;;3.57;61.54;98419.75;5021564;28;20037;-81
2022/01/20 01:11:05;;;;;;;38.25;17.27;;;3.90;99.90;;;3.67;62.25;98432.56;5036428;28;20036;-81
2022/01/20 01:13:31;;;;;;;29.20;15.15;;;3.90;99.90;;;3.75;62.16;98429.50;5002184;28;20041;-81
2022/01/20 01:15:57;;;;;;;26.85;13.98;;;3.90;99.90;;;3.73;62.66;98428.91;5015774;28;20120;-81
2022/01/20 01:21:27;;;;;;;26.45;14.27;;;4.00;99.90;;;3.80;62.09;98418.88;5038897;28;20068;-81
2022/01/20 01:23:53;;;;;;;28.67;16.02;;;4.00;99.90;;;3.82;61.86;98424.81;5022353;28;20568;-81
2022/01/20 01:26:21;;;;;;;26.88;14.10;;;4.10;99.90;;;3.88;61.51;98391.66;5032240;28;20068;-81
2022/01/20 01:28:48;;;;;;;25.65;16.10;;;4.10;99.90;;;3.91;62.00;98406.44;5005862;28;20041;-81
2022/01/20 01:31:34;;;;;;;29.77;14.65;;;4.20;99.90;;;4.08;61.48;98391.22;5012457;28;20076;-81
2022/01/20 01:34:11;;;;;;;23.40;13.43;;;4.10;99.90;;;4.10;61.41;98399.84;5018925;28;20098;-81
2022/01/20 01:37:03;;;;;;;26.35;15.40;;;4.10;99.90;;;4.07;61.48;98375.34;5005724;28;20041;-81
2022/01/20 01:39:29;;;;;;;23.65;14.40;;;4.10;99.90;;;4.03;61.34;98388.44;5022777;28;20094;-81
2022/01/20 01:41:57;;;;;;;28.17;14.52;;;4.20;99.90;;;4.03;61.21;98371.53;5007452;28;20045;-81
2022/01/20 01:44:27;;;;;;;22.90;13.65;;;4.30;99.90;;;3.97;61.85;98367.94;5019814;28;20543;-81
2022/01/20 01:46:53;;;;;;;25.85;15.90;;;4.20;99.90;;;3.96;62.31;98365.47;5008666;28;20469;-81
2022/01/20 01:49:20;;;;;;;30.60;15.30;;;4.10;99.90;;;3.95;62.10;98358.50;5014646;28;20041;-81
2022/01/20 01:51:46;;;;;;;22.40;13.98;;;4.10;99.90;;;3.90;62.65;98356.53;5036825;28;20485;-81
2022/01/20 01:54:14;;;;;;;24.90;15.70;;;4.10;99.90;;;3.92;62.92;98355.25;5016207;28;20037;-80
2022/01/20 01:56:40;;;;;;;21.23;13.85;;;4.10;99.90;;;3.91;62.77;98342.06;5015881;28;20109;-81
2022/01/20 01:59:07;;;;;;;26.48;14.23;;;4.00;99.90;;;3.95;62.42;98345.09;5017381;28;20120;-81
2022/01/20 02:01:36;;;;;;;24.05;14.73;;;4.00;99.90;;;3.91;62.18;98331.31;5050219;28;20120;-81
2022/01/20 02:04:13;;;;;;;24.67;15.25;;;4.00;99.90;;;3.95;62.44;98337.84;5032718;28;20076;-81
2022/01/20 02:20:25;;;;;;;21.70;14.27;;;4.10;99.90;;;3.97;61.63;98305.38;5023060;28;20048;-81
2022/01/20 02:22:51;;;;;;;23.02;14.20;;;4.20;99.90;;;4.03;61.51;98297.19;5019280;28;20124;-81
2022/01/20 02:25:26;;;;;;;19.00;12.60;;;4.20;99.90;;;4.12;61.27;98306.47;5017218;28;20093;-81
2022/01/20 02:27:53;;;;;;;17.67;12.25;;;4.30;99.90;;;4.14;60.42;98298.16;5005808;28;20136;-81
2022/01/20 02:30:20;;;;;;;17.23;11.82;;;4.30;99.90;;;4.19;60.52;98294.75;5033277;28;20095;-81
2022/01/20 02:33:01;;;;;;;18.52;12.88;;;4.30;99.90;;;4.21;60.61;98306.06;5002064;28;20041;-80
2022/01/20 02:35:30;;;;;;;24.38;10.93;;;4.30;99.90;;;4.24;60.34;98295.63;5020522;28;20069;-81
2022/01/20 02:37:58;;;;;;;20.25;12.63;;;4.40;99.90;;;4.23;59.95;98288.66;5032937;28;20431;-80
2022/01/20 02:44:48;;;;;;;20.50;12.55;;;4.40;99.90;;;4.25;60.09;98272.28;5035824;28;20044;-81
2022/01/20 02:46:03;;;;;;;20.20;12.15;;;4.30;99.90;;;4.23;60.27;98285.16;5025214;28;20037;-81
2022/01/20 02:48:30;;;;;;;18.85;12.65;;;4.30;99.90;;;4.20;60.11;98285.63;5018159;28;20043;-81
2022/01/20 02:50:57;;;;;;;22.95;13.13;;;4.30;99.90;;;4.20;60.57;98283.78;5031865;28;20041;-80
2022/01/20 02:53:23;;;;;;;17.85;11.27;;;4.30;99.90;;;4.27;59.92;98278.22;5018505;28;20075;-80
2022/01/20 02:55:51;;;;;;;16.63;10.80;;;4.40;99.90;;;4.31;59.56;98276.69;5034464;28;20037;-81
2022/01/20 02:58:17;;;;;;;26.35;15.15;;;4.40;99.90;;;4.30;59.74;98273.19;5034174;28;20048;-81
2022/01/20 03:00:43;;;;;;;20.73;11.55;;;4.40;99.90;;;4.32;58.69;98272.91;5012855;28;20745;-81
2022/01/20 03:03:09;;;;;;;24.75;11.55;;;4.40;99.90;;;4.33;59.35;98267.31;5018195;28;20555;-81
2022/01/20 03:05:36;;;;;;;23.58;11.38;;;4.50;99.90;;;4.39;59.47;98275.44;5031167;28;20060;-81
2022/01/20 03:08:01;;;;;;;18.77;11.88;;;4.40;99.90;;;4.35;59.45;98261.69;5031371;28;20124;-81
2022/01/20 03:10:28;;;;;;;18.00;11.05;;;4.40;99.90;;;4.45;59.63;98253.81;5048474;28;20124;-81
2022/01/20 03:12:55;;;;;;;21.63;11.48;;;4.50;99.90;;;4.39;59.49;98268.19;5004837;28;20091;-80
2022/01/20 03:15:22;;;;;;;18.65;11.07;;;4.60;99.90;;;4.37;60.27;98278.38;5033124;28;20037;-81
2022/01/20 03:17:48;;;;;;;16.80;10.68;;;4.50;99.90;;;4.37;60.23;98256.09;5019705;28;20453;-81
2022/01/20 03:20:14;;;;;;;14.88;10.10;;;4.50;99.90;;;4.33;60.81;98271.88;5015262;28;20037;-81
2022/01/20 03:22:40;;;;;;;20.05;11.77;;;4.50;99.90;;;4.26;60.76;98247.06;5001522;28;20124;-81
2022/01/20 03:25:07;;;;;;;15.75;10.15;;;4.50;99.90;;;4.26;61.20;98265.88;5047741;28;20045;-81
2022/01/20 03:27:32;;;;;;;18.23;11.45;;;4.50;99.90;;;4.24;61.19;98257.22;5017080;28;20049;-81
2022/01/20 03:29:58;;;;;;;19.83;10.90;;;4.50;99.90;;;4.26;62.20;98269.34;5018031;28;20442;-81
2022/01/20 03:32:24;;;;;;;17.45;11.48;;;4.50;99.90;;;4.29;61.95;98250.06;5038319;28;20045;-81
2022/01/20 03:34:50;;;;;;;17.10;11.00;;;4.50;99.90;;;4.21;61.89;98247.00;5015589;28;20087;-81
2022/01/20 03:37:16;;;;;;;22.13;11.85;;;4.40;99.90;;;4.27;61.99;98251.38;5013438;28;20128;-81
2022/01/20 03:39:42;;;;;;;22.67;12.27;;;4.40;99.90;;;4.28;62.12;98228.84;5016081;28;20113;-81
2022/01/20 03:42:08;;;;;;;25.70;12.32;;;4.50;99.90;;;4.32;62.05;98230.78;5002526;28;20128;-81
2022/01/20 03:44:34;;;;;;;19.73;10.65;;;4.40;99.90;;;4.26;61.73;98217.53;5047872;28;20616;-80
2022/01/20 03:47:02;;;;;;;16.77;10.93;;;4.40;99.90;;;4.29;61.97;98200.94;5001339;28;20087;-81
2022/01/20 03:49:53;;;;;;;23.58;11.95;;;4.40;99.90;;;4.30;61.16;98219.50;5032316;28;20409;-81
2022/01/20 03:52:19;;;;;;;14.00;9.88;;;4.40;99.90;;;4.29;61.50;98217.03;5025440;28;20151;-81
2022/01/20 03:54:45;;;;;;;20.98;11.07;;;4.50;99.90;;;4.35;60.72;98208.81;5003563;28;20068;-81
2022/01/20 03:57:11;;;;;;;18.30;9.35;;;4.50;99.90;;;4.37;60.46;98211.25;4997438;28;20072;-81
2022/01/20 03:59:37;;;;;;;16.63;11.10;;;4.50;99.90;;;4.41;60.69;98217.75;5006752;28;20068;-81
2022/01/20 04:02:05;;;;;;;13.18;9.30;;;4.60;99.90;;;4.38;60.54;98196.78;5051474;28;20477;-81
2022/01/20 04:04:31;;;;;;;17.73;11.18;;;4.50;99.90;;;4.48;60.50;98207.66;5014899;28;20053;-80
2022/01/20 04:06:59;;;;;;;16.30;9.88;;;4.50;99.90;;;4.42;60.51;98202.44;5005312;28;20471;-81
2022/01/20 04:09:25;;;;;;;17.90;9.98;;;4.60;99.90;;;4.49;60.32;98206.56;5002097;28;20399;-81
2022/01/20 04:11:51;;;;;;;16.10;10.18;;;4.60;99.90;;;4.48;59.63;98201.47;5019635;28;20040;-81
2022/01/20 04:14:17;;;;;;;12.07;8.18;;;4.50;99.90;;;4.49;60.31;98200.41;5016569;28;20072;-81
2022/01/20 04:19:24;;;;;;;15.77;9.13;;;4.60;99.90;;;4.50;60.55;98184.03;5035498;28;20448;-81
2022/01/20 04:21:50;;;;;;;14.52;8.50;;;4.60;99.90;;;4.47;60.00;98195.25;5018971;28;20037;-81
2022/01/20 04:24:16;;;;;;;17.50;9.95;;;4.60;99.90;;;4.46;60.35;98190.97;5031562;28;20040;-81
2022/01/20 04:26:43;;;;;;;15.43;10.25;;;4.70;99.90;;;4.43;60.29;98188.78;5022060;28;20079;-81
2022/01/20 04:29:11;;;;;;;17.70;9.50;;;4.60;99.90;;;4.47;61.00;98181.84;5033673;28;20060;-81
2022/01/20 04:31:37;;;;;;;16.88;10.73;;;4.60;99.90;;;4.50;60.85;98170.63;5004165;28;20037;-81
2022/01/20 04:34:03;;;;;;;13.02;8.52;;;4.60;99.90;;;4.52;60.99;98181.91;5023950;28;20120;-81
2022/01/20 04:36:33;;;;;;;19.40;9.63;;;4.60;99.90;;;4.47;61.12;98186.41;5041030;28;20407;-81
2022/01/20 04:39:01;;;;;;;14.20;8.43;;;4.60;99.90;;;4.46;60.85;98188.28;5022109;28;20052;-81
2022/01/20 04:41:29;;;;;;;18.25;9.40;;;4.60;99.90;;;4.43;61.17;98171.88;5010490;28;20699;-81
2022/01/20 04:43:59;;;;;;;15.05;9.85;;;4.60;99.90;;;4.48;61.50;98166.56;5006687;28;20063;-81
2022/01/20 04:46:39;;;;;;;18.90;9.52;;;4.60;99.90;;;4.47;61.36;98173.78;5018655;28;20045;-81
2022/01/20 04:59:29;;;;;;;16.25;9.38;;;4.60;99.90;;;4.50;62.03;98143.75;5051401;28;20111;-81
2022/01/20 05:01:55;;;;;;;19.10;11.95;;;4.70;99.90;;;4.48;61.70;98137.00;5035325;28;20448;-81
2022/01/20 05:04:23;;;;;;;18.98;10.68;;;4.60;99.90;;;4.44;61.86;98136.69;5036585;28;20492;-82
2022/01/20 05:06:52;;;;;;;12.45;8.52;;;4.60;99.90;;;4.47;62.28;98132.69;5020155;28;20544;-81
2022/01/20 05:09:20;;;;;;;14.60;9.18;;;4.60;99.90;;;4.47;61.92;98141.53;5033438;28;20033;-82
2022/01/20 05:11:50;;;;;;;14.70;9.07;;;4.60;99.90;;;4.50;61.88;98140.25;5036820;28;20374;-81
2022/01/20 05:14:16;;;;;;;16.77;9.88;;;4.60;99.90;;;4.50;62.39;98137.56;5033976;28;20049;-81
2022/01/20 05:16:42;;;;;;;17.55;9.60;;;4.60;99.90;;;4.56;61.91;98144.63;5019986;28;20400;-82
2022/01/20 05:19:08;;;;;;;15.85;8.98;;;4.60;99.90;;;4.54;61.69;98144.06;5023069;28;20033;-82
2022/01/20 05:21:34;;;;;;;13.52;8.70;;;4.60;99.90;;;4.54;61.75;98136.81;5021222;28;20124;-82
2022/01/20 05:24:00;;;;;;;18.83;10.82;;;4.60;99.90;;;4.46;61.94;98134.56;5035178;28;20045;-81
2022/01/20 05:26:27;;;;;;;20.10;9.95;;;4.60;99.90;;;4.50;61.45;98124.97;5021876;28;20053;-82
2022/01/20 05:28:53;;;;;;;21.17;10.68;;;4.60;99.90;;;4.46;61.76;98126.50;5017394;28;20128;-82
2022/01/20 05:31:19;;;;;;;16.70;10.20;;;4.50;99.90;;;4.53;61.38;98120.97;5037632;28;20032;-82
2022/01/20 05:33:45;;;;;;;18.23;10.02;;;4.50;99.90;;;4.57;61.87;98116.69;5005724;28;20097;-82
2022/01/20 05:36:11;;;;;;;19.17;10.93;;;4.60;99.90;;;4.56;62.16;98118.56;5036373;28;20044;-84
2022/01/20 05:38:37;;;;;;;23.27;11.57;;;4.60;99.90;;;4.66;61.23;98128.63;5018467;28;20047;-84
2022/01/20 05:41:03;;;;;;;20.00;10.38;;;4.60;99.90;;;4.73;61.18;98121.19;4999259;28;20128;-84
2022/01/20 05:43:29;;;;;;;26.77;13.20;;;4.70;99.90;;;4.70;60.64;98120.88;5017847;28;20139;-84
2022/01/20 05:45:55;;;;;;;18.88;10.82;;;4.80;99.90;;;4.72;60.41;98121.44;5014482;28;20094;-84
2022/01/20 05:48:32;;;;;;;21.63;11.13;;;4.80;99.90;;;4.72;60.85;98124.13;5018126;28;20079;-84
2022/01/20 05:50:58;;;;;;;25.52;11.05;;;4.80;99.90;;;4.75;60.56;98121.72;5019710;28;20595;-84
2022/01/20 05:53:24;;;;;;;15.85;9.77;;;4.80;99.90;;;4.70;61.07;98112.81;5049460;28;20172;-84
2022/01/20 05:55:50;;;;;;;20.20;10.13;;;4.90;99.90;;;4.75;61.09;98120.91;5011529;28;20041;-84
2022/01/20 05:58:16;;;;;;;14.52;9.30;;;4.90;99.90;;;4.76;60.93;98119.88;5012936;28;20575;-84
2022/01/20 06:00:42;;;;;;;18.38;9.70;;;4.90;99.90;;;4.78;60.92;98104.28;5017901;28;20068;-84
2022/01/20 06:05:53;;;;;;;14.68;9.60;;;4.90;99.90;;;4.87;60.60;98101.97;5017517;28;20163;-84
2022/01/20 06:08:19;;;;;;;12.38;8.05;;;4.90;99.90;;;4.85;60.73;98104.91;5011709;28;20087;-84
2022/01/20 06:10:45;;;;;;;14.80;8.65;;;4.90;99.90;;;4.91;60.13;98111.97;5017604;28;20060;-84
2022/01/20 06:13:12;;;;;;;12.73;8.32;;;4.90;99.90;;;4.91;60.25;98119.19;5015565;28;20045;-81
2022/01/20 06:15:37;;;;;;;12.38;7.85;;;5.00;99.90;;;4.93;60.27;98112.50;5018422;28;20048;-82
2022/01/20 06:18:03;;;;;;;19.00;8.98;;;5.00;99.90;;;4.95;60.27;98118.44;4999458;28;20044;-82
2022/01/20 06:20:30;;;;;;;13.13;8.23;;;5.00;99.90;;;4.91;60.19;98113.81;5033167;28;20080;-82
2022/01/20 06:22:56;;;;;;;13.60;8.73;;;5.00;99.90;;;4.95;59.95;98125.69;5017065;28;20045;-82
2022/01/20 06:25:22;;;;;;;17.92;8.20;;;5.00;99.90;;;4.95;59.45;98109.56;5016272;28;20494;-82
2022/01/20 06:27:48;;;;;;;11.15;6.88;;;5.10;99.90;;;4.94;59.03;98095.31;5049933;28;20048;-82
2022/01/20 06:30:14;;;;;;;18.88;9.27;;;5.10;99.90;;;5.01;59.16;98111.22;5018744;28;20049;-82
2022/01/20 06:32:40;;;;;;;17.15;7.60;;;5.10;99.90;;;4.97;59.90;98107.44;5033429;28;20542;-82
2022/01/20 06:35:07;;;;;;;15.15;7.93;;;5.10;99.90;;;5.01;59.28;98105.84;5034057;28;20037;-82
2022/01/20 06:37:33;;;;;;;13.75;8.48;;;5.10;99.90;;;5.00;59.19;98094.28;5015261;28;20037;-82
2022/01/20 06:39:59;;;;;;;16.63;8.50;;;5.10;99.90;;;4.96;59.39;98095.88;5034872;28;20056;-82
2022/01/20 06:42:25;;;;;;;15.45;9.57;;;5.10;99.90;;;4.91;59.43;98082.41;5037036;28;20129;-82
2022/01/20 06:44:51;;;;;;;12.27;8.85;;;5.10;99.90;;;4.94;59.57;98086.47;5000654;28;20465;-81
2022/01/20 06:47:19;;;;;;;14.40;7.85;;;5.10;99.90;;;5.02;59.67;98083.31;5033014;28;20045;-82
2022/01/20 06:49:46;;;;;;;12.77;8.73;;;5.10;99.90;;;5.05;59.18;98082.78;5022961;28;20123;-81
2022/01/20 06:52:12;;;;;;;17.08;8.57;;;5.20;99.90;;;5.10;59.29;98084.72;5036701;28;20037;-82
2022/01/20 06:54:37;;;;;;;15.65;9.23;;;5.20;99.90;;;5.07;59.55;98069.09;5037516;28;20079;-81
2022/01/20 06:57:04;;;;;;;14.55;9.10;;;5.20;99.90;;;5.09;59.52;98070.47;5034517;28;20044;-80
2022/01/20 06:59:30;;;;;;;12.73;8.10;;;5.20;99.90;;;5.13;58.87;98081.50;5005436;28;20033;-80
2022/01/20 07:01:56;;;;;;;14.05;7.60;;;5.20;99.90;;;5.09;58.75;98061.56;5015605;28;20052;-79
2022/01/20 07:04:23;;;;;;;15.43;8.23;;;5.20;99.90;;;5.11;58.79;98079.06;5022504;28;20363;-80
2022/01/20 07:06:49;;;;;;;11.90;7.72;;;5.30;99.90;;;5.07;58.75;98075.28;5013064;28;20391;-80
2022/01/20 07:09:15;;;;;;;11.48;6.70;;;5.20;99.90;;;5.10;59.09;98079.34;5016443;28;20123;-80
2022/01/20 07:11:41;;;;;;;13.45;8.10;;;5.20;99.90;;;5.14;58.43;98058.94;5031085;28;20041;-80
2022/01/20 07:14:08;;;;;;;15.63;7.82;;;5.30;99.90;;;5.15;58.67;98060.56;5061394;28;20037;-80
2022/01/20 07:16:34;;;;;;;14.13;7.90;;;5.30;99.90;;;5.19;58.31;98075.09;4994777;28;20034;-80
2022/01/20 07:19:00;;;;;;;13.85;8.38;;;5.30;99.90;;;5.24;58.34;98064.41;5000224;28;20030;-80
2022/01/20 07:21:27;;;;;;;12.20;7.32;;;5.30;99.90;;;5.31;58.19;98070.34;5026032;28;20052;-79
2022/01/20 07:23:53;;;;;;;14.15;7.68;;;5.40;99.90;;;5.33;58.67;98068.22;5038043;28;20028;-83
2022/01/20 07:26:20;;;;;;;16.23;7.97;;;5.50;99.90;;;5.34;58.29;98069.03;5015840;28;20057;-81
2022/01/20 07:28:46;;;;;;;17.25;8.45;;;5.50;99.90;;;5.36;57.63;98080.34;5035191;28;20056;-82
2022/01/20 07:31:12;;;;;;;11.80;7.50;;;5.50;99.90;;;5.38;57.57;98062.09;5035518;28;20396;-82
2022/01/20 07:33:38;;;;;;;16.00;8.48;;;5.60;99.90;;;5.44;57.66;98085.25;5010685;28;20074;-82
2022/01/20 07:36:04;;;;;;;10.63;6.80;;;5.60;99.90;;;5.46;57.51;98079.63;5034711;28;20048;-82
2022/01/20 07:38:31;;;;;;;17.75;9.00;;;5.60;99.90;;;5.37;58.45;98096.25;5035287;28;20047;-82
2022/01/20 07:40:57;;;;;;;16.58;8.68;;;5.50;99.90;;;5.37;58.30;98111.56;5031738;28;20478;-84
2022/01/20 07:43:23;;;;;;;15.60;9.68;;;5.40;99.90;;;5.10;60.59;98119.66;4998981;28;20075;-82
2022/01/20 07:45:49;;;;;;;19.25;11.07;;;5.40;99.90;;;4.70;62.03;98136.97;5016032;28;20048;-82
2022/01/20 07:48:15;;;;;;;15.85;10.00;;;5.10;99.90;;;4.25;64.07;98146.09;5016546;28;20097;-82
2022/01/20 07:50:41;;;;;;;18.85;9.85;;;4.70;99.90;;;3.82;66.20;98147.66;5033779;28;20064;-82
2022/01/20 07:53:07;;;;;;;18.30;9.93;;;4.30;99.90;;;3.55;67.45;98158.25;5015021;28;20037;-82
2022/01/20 07:55:34;;;;;;;25.02;11.10;;;4.00;99.90;;;3.47;68.34;98165.63;5014396;28;20037;-82
2022/01/20 07:58:00;;;;;;;21.15;13.00;;;3.80;99.90;;;3.56;67.82;98171.41;5015426;28;20038;-81
2022/01/20 08:00:26;;;;;;;34.10;16.25;;;3.80;99.90;;;3.43;68.63;98190.47;5049898;28;21474;-82
2022/01/20 08:02:52;;;;;;;41.50;19.58;;;3.80;99.90;;;3.35;69.22;98199.72;5021300;28;20033;-81
2022/01/20 08:05:18;;;;;;;36.60;17.08;;;3.70;99.90;;;3.42;69.73;98194.22;5019191;28;20551;-81
2022/01/20 08:07:45;;;;;;;28.60;15.05;;;3.70;99.90;;;3.58;69.23;98182.69;5051582;28;20076;-81
2022/01/20 08:10:12;;;;;;;27.40;15.20;;;3.70;99.90;;;3.86;68.56;98156.84;5039522;28;20071;-81
2022/01/20 08:12:38;;;;;;;24.42;13.13;;;4.00;99.90;;;4.08;68.16;98159.56;5039593;28;20041;-81
2022/01/20 08:15:05;;;;;;;24.55;13.63;;;4.20;99.90;;;4.26;67.56;98153.09;5014844;28;20103;-81
2022/01/20 08:17:31;;;;;;;21.33;10.85;;;4.40;99.90;;;4.41;67.61;98147.13;5004868;28;20092;-81
2022/01/20 08:19:58;;;;;;;22.63;13.45;;;4.60;99.90;;;4.49;66.63;98152.06;5021855;28;20079;-81
2022/01/20 08:22:24;;;;;;;17.90;11.35;;;4.70;99.90;;;4.56;66.89;98156.19;5054784;28;20477;-81
2022/01/20 08:24:52;;;;;;;21.63;10.90;;;4.90;99.90;;;4.52;66.24;98160.41;5021655;28;20524;-82
2022/01/20 08:27:23;;;;;;;22.55;13.20;;;4.90;99.90;;;4.49;65.73;98165.47;5026023;28;20052;-81
2022/01/20 08:29:49;;;;;;;17.80;11.82;;;4.90;99.90;;;4.45;66.07;98156.28;5016796;28;20044;-82
2022/01/20 08:32:15;;;;;;;17.75;10.85;;;4.80;99.90;;;4.45;66.12;98146.38;5034674;28;20171;-81
2022/01/20 08:34:41;;;;;;;15.55;9.80;;;4.80;99.90;;;4.37;65.65;98138.75;5032831;28;20040;-81
2022/01/20 08:37:07;;;;;;;16.27;9.48;;;4.80;99.90;;;4.35;66.20;98154.28;5024428;28;20431;-81
2022/01/20 08:42:03;;;;;;;21.95;10.77;;;4.70;99.90;;;4.32;65.52;98130.63;5018112;28;20140;-81
2022/01/20 08:44:29;;;;;;;18.13;10.35;;;4.70;99.90;;;4.30;65.58;98130.88;5017577;28;20090;-81
2022/01/20 08:46:58;;;;;;;18.25;12.13;;;4.70;99.90;;;4.22;65.56;98135.84;5018530;28;20416;-82
2022/01/20 08:49:24;;;;;;;19.88;11.68;;;4.60;99.90;;;4.10;65.92;98130.63;5000884;28;20054;-81
2022/01/20 08:51:51;;;;;;;22.48;12.40;;;4.50;99.90;;;4.10;65.90;98136.00;5020854;28;20575;-83
2022/01/20 08:54:17;;;;;;;22.27;12.00;;;4.40;99.90;;;3.99;66.11;98124.28;5022745;28;20122;-83
2022/01/20 08:56:43;;;;;;;24.38;13.20;;;4.40;99.90;;;3.98;66.63;98133.41;5019687;28;20071;-83
2022/01/20 08:59:10;;;;;;;24.08;13.32;;;4.30;99.90;;;4.01;66.14;98132.91;5016427;28;20068;-83
2022/01/20 09:01:37;;;;;;;24.75;14.00;;;4.20;99.90;;;4.04;66.65;98121.66;5031860;28;20090;-83
2022/01/20 09:04:04;;;;;;;20.45;13.80;;;4.20;99.90;;;4.17;65.82;98117.00;5023493;28;20041;-83
2022/01/20 09:06:30;;;;;;;31.52;15.70;;;4.30;99.90;;;4.22;66.01;98104.44;5016875;28;20402;-83
2022/01/20 09:08:56;;;;;;;32.38;17.67;;;4.40;99.90;;;4.38;66.53;98091.25;5035634;28;20091;-83
2022/01/20 09:11:30;;;;;;;32.88;17.17;;;4.40;99.90;;;4.33;66.13;98106.22;5022503;28;21439;-83
2022/01/20 09:16:42;;;;;;;27.58;15.00;;;4.60;99.90;;;4.41;66.21;98093.41;5025292;28;20041;-83
2022/01/20 09:19:08;;;;;;;25.10;14.50;;;4.60;99.90;;;4.52;66.08;98089.78;5021823;28;20040;-84
2022/01/20 09:21:39;;;;;;;20.83;12.45;;;4.80;99.90;;;4.60;66.38;98081.25;5037504;28;20120;-84
2022/01/20 09:24:05;;;;;;;21.38;14.00;;;4.80;99.90;;;4.70;66.21;98081.38;5023597;28;20119;-83
2022/01/20 09:26:31;;;;;;;23.30;13.82;;;4.90;99.90;;;4.82;65.71;98080.44;5072685;28;20151;-83
2022/01/20 09:28:58;;;;;;;32.30;14.20;;;5.00;99.90;;;4.89;65.27;98073.78;5023856;28;20399;-83
2022/01/20 09:31:26;;;;;;;24.08;13.43;;;5.10;99.90;;;4.98;65.33;98058.00;5018312;28;20214;-83
2022/01/20 09:33:53;;;;;;;20.30;11.48;;;5.20;99.90;;;5.04;64.94;98056.16;5051954;28;20392;-83
2022/01/20 09:36:20;;;;;;;26.23;14.35;;;5.30;99.90;;;5.17;64.51;98055.75;5037709;28;20075;-83
2022/01/20 09:38:46;;;;;;;21.73;13.18;;;5.40;99.90;;;5.35;64.14;98049.97;5020744;28;20049;-83
2022/01/20 09:41:13;;;;;;;20.35;11.88;;;5.50;99.90;;;5.60;63.52;98048.53;4999162;28;20501;-83
2022/01/20 09:43:39;;;;;;;22.92;13.45;;;5.70;99.90;;;5.74;62.36;98041.59;5017029;28;20181;-84
2022/01/20 09:46:05;;;;;;;23.08;13.43;;;5.90;99.90;;;5.90;61.95;98034.41;5002502;28;20048;-83
2022/01/20 09:48:32;;;;;;;33.75;15.75;;;6.00;99.90;;;6.07;61.38;98036.94;5012631;28;20045;-83
2022/01/20 09:51:00;;;;;;;16.55;11.25;;;6.10;99.90;;;6.18;60.67;98041.31;4996486;28;20041;-83
2022/01/20 09:53:27;;;;;;;19.45;10.82;;;6.30;99.90;;;6.30;60.30;98041.88;5019783;28;20523;-83
2022/01/20 09:55:54;;;;;;;16.70;9.60;;;6.40;99.90;;;6.53;59.25;98027.13;4999659;28;20111;-83
2022/01/20 09:58:20;;;;;;;21.00;9.43;;;6.60;99.90;;;6.92;58.22;98031.22;5052978;28;20516;-83
2022/01/20 10:00:46;;;;;;;15.60;8.52;;;6.90;99.90;;;7.30;57.19;98029.06;5018540;28;20815;-83
2022/01/20 10:03:15;;;;;;;14.75;7.97;;;7.40;99.90;;;7.40;56.42;98026.34;5018683;28;20046;-82
2022/01/20 10:05:50;;;;;;;15.65;7.55;;;7.70;99.90;;;7.45;57.16;98014.75;5002700;28;20388;-83
2022/01/20 10:08:21;;;;;;;14.35;8.13;;;7.80;99.90;;;7.44;56.66;98008.56;5020159;28;20044;-83
2022/01/20 10:10:57;;;;;;;14.43;8.30;;;7.90;99.90;;;7.69;56.41;97999.59;5034133;28;20068;-83
2022/01/20 10:13:29;;;;;;;16.88;8.95;;;8.00;99.90;;;7.98;56.22;97980.06;5036661;28;20128;-83
2022/01/20 10:16:19;;;;;;;13.82;8.23;;;8.10;99.90;;;8.11;55.46;97971.34;5017147;28;20504;-83
2022/01/20 10:19:00;;;;;;;13.68;8.23;;;8.40;99.90;;;8.10;54.86;97968.94;5036902;28;20040;-83
2022/01/20 10:21:34;;;;;;;12.20;7.78;;;8.50;99.90;;;7.99;55.12;97960.09;5033332;28;20344;-83
2022/01/20 10:24:05;;;;;;;12.30;7.53;;;8.50;99.90;;;7.80;55.00;97967.97;5015695;28;20120;-83
2022/01/20 10:26:31;;;;;;;11.23;6.73;;;8.40;99.90;;;7.79;54.61;97958.28;5037301;28;20488;-83
2022/01/20 10:29:13;;;;;;;15.48;7.00;;;8.20;99.90;;;7.61;54.38;97962.38;5000445;28;20037;-83
2022/01/20 10:31:42;;;;;;;11.70;6.90;;;8.20;99.90;;;7.48;54.68;97957.53;5030970;28;20044;-83
2022/01/20 10:34:32;;;;;;;12.63;7.30;;;8.00;99.90;;;7.37;54.48;97954.88;5013127;28;20049;-83
2022/01/20 10:37:05;;;;;;;13.05;7.20;;;7.90;99.90;;;7.24;54.05;97947.34;5039542;28;20053;-83
2022/01/20 10:39:44;;;;;;;16.42;7.50;;;7.70;99.90;;;7.05;54.69;97946.31;5052640;28;20051;-83
2022/01/20 10:42:22;;;;;;;11.18;6.47;;;7.60;99.90;;;7.03;54.46;97933.09;5022109;28;20055;-83
2022/01/20 10:44:51;;;;;;;13.20;5.78;;;7.50;99.90;;;7.05;53.90;97922.84;5033698;28;20045;-83
2022/01/20 10:47:19;;;;;;;13.77;6.93;;;7.40;99.90;;;6.99;53.85;97913.13;5000866;28;20574;-83
2022/01/20 10:49:48;;;;;;;9.98;5.63;;;7.40;99.90;;;6.82;53.14;97905.34;5019582;28;20112;-83
2022/01/20 10:52:21;;;;;;;11.80;4.43;;;7.30;99.90;;;6.60;53.39;97892.16;5006487;28;20131;-83
2022/01/20 10:54:51;;;;;;;11.15;4.85;;;7.10;99.90;;;6.56;53.69;97895.63;5037933;28;20098;-83
2022/01/20 10:57:24;;;;;;;11.43;5.30;;;7.00;99.90;;;6.43;53.14;97886.22;5020657;28;20071;-83
2022/01/20 10:59:53;;;;;;;12.05;4.95;;;6.90;99.90;;;6.43;53.83;97880.81;5031672;28;20094;-83
2022/01/20 11:02:21;;;;;;;10.85;5.25;;;6.80;99.90;;;6.45;53.38;97865.19;5053319;28;20166;-82
2022/01/20 11:04:47;;;;;;;18.52;5.47;;;6.70;99.90;;;6.44;52.69;97885.16;5023681;28;20090;-83
2022/01/20 11:07:13;;;;;;;8.93;3.85;;;6.70;99.90;;;6.36;52.38;97873.03;5021489;28;20484;-83
2022/01/20 11:09:43;;;;;;;12.45;4.07;;;6.60;99.90;;;6.46;52.57;97861.41;5014756;28;20069;-83
2022/01/20 11:12:17;;;;;;;8.13;3.97;;;6.70;99.90;;;6.61;51.64;97861.41;5018377;28;20041;-83
2022/01/20 11:14:45;;;;;;;10.68;4.00;;;6.80;99.90;;;6.58;51.97;97866.53;5019786;28;20116;-83
2022/01/20 11:17:22;;;;;;;10.60;3.78;;;6.90;99.90;;;6.38;51.96;97899.69;5015306;28;20036;-83
2022/01/20 11:19:49;;;;;;;7.78;3.28;;;6.80;99.90;;;6.06;53.13;97914.97;4998590;28;20041;-83
2022/01/20 11:22:17;;;;;;;10.15;4.88;;;6.50;99.90;;;5.81;54.53;97917.56;5051024;28;20041;-83
2022/01/20 11:24:43;;;;;;;12.23;3.90;;;6.20;99.90;;;5.32;58.59;97915.22;5037557;28;20492;-83
2022/01/20 11:27:12;;;;;;;5.70;2.90;;;5.80;99.90;;;4.75;62.23;97940.91;5013919;28;20126;-83
2022/01/20 11:29:48;;;;;;;13.23;2.22;;;5.40;99.90;;;4.01;65.69;97968.41;5005641;28;20094;-83
2022/01/20 11:32:23;;;;;;;3.88;1.73;;;4.80;99.90;;;3.25;68.09;97969.84;5031721;28;20033;-83